Time;durP1;ratioP1;P1;durP2;ratioP2;P2;SDS_P1;SDS_P2;PMS_P1;PMS_P2;Temp;Humidity;BMP_temperature;BMP_pressure;BME280_temperature;BME280_humidity;BME280_pressure;Samples;Min_cycle;Max_cycle;Signal;HPM_P1;HPM_P2
2021/11/19 00:00:13;;;;;;;128.90;53.72;;;9.60;99.90;;;;;;5073387;28;20458;-67
2021/11/19 00:02:39;;;;;;;126.25;53.92;;;9.60;99.90;;;;;;5072529;28;20048;-66
2021/11/19 00:05:06;;;;;;;129.48;57.03;;;9.60;99.90;;;;;;5055190;28;20056;-67
2021/11/19 00:07:33;;;;;;;139.82;57.67;;;9.60;99.90;;;;;;5073005;28;20017;-67
2021/11/19 00:09:59;;;;;;;140.95;58.65;;;9.60;99.90;;;;;;5071797;28;20021;-66
2021/11/19 00:12:25;;;;;;;147.23;59.83;;;9.60;99.90;;;;;;5073424;28;20458;-65
2021/11/19 00:14:51;;;;;;;144.10;61.67;;;9.60;99.90;;;;;;5073513;28;20036;-66
2021/11/19 00:17:17;;;;;;;143.43;61.25;;;9.60;99.90;;;;;;5073491;28;20028;-67
2021/11/19 00:19:44;;;;;;;153.75;63.28;;;9.60;99.90;;;;;;5076681;28;20021;-67
2021/11/19 00:22:13;;;;;;;147.70;62.50;;;9.60;99.90;;;;;;5075776;28;20027;-66
2021/11/19 00:24:40;;;;;;;161.07;65.03;;;9.60;99.90;;;;;;5076181;28;20028;-66
2021/11/19 00:27:07;;;;;;;152.68;61.85;;;9.60;99.90;;;;;;5058667;28;20020;-66
2021/11/19 00:29:33;;;;;;;156.02;62.72;;;9.60;99.90;;;;;;5077052;28;20017;-66
2021/11/19 00:31:58;;;;;;;144.38;60.13;;;9.60;99.90;;;;;;5076405;28;20402;-66
2021/11/19 00:34:24;;;;;;;167.75;63.13;;;9.60;99.90;;;;;;5076680;28;20377;-66
2021/11/19 00:36:55;;;;;;;163.27;61.28;;;9.60;99.90;;;;;;5076938;28;20032;-66
2021/11/19 00:39:21;;;;;;;163.77;63.63;;;9.60;99.90;;;;;;5076908;28;20048;-66
2021/11/19 00:41:48;;;;;;;152.55;62.63;;;9.60;99.90;;;;;;5076844;28;20032;-66
2021/11/19 00:44:14;;;;;;;161.38;61.20;;;9.60;99.90;;;;;;5076816;28;20020;-65
2021/11/19 00:46:41;;;;;;;162.10;63.97;;;9.60;99.90;;;;;;5076475;28;20025;-66
2021/11/19 00:49:08;;;;;;;163.52;65.45;;;9.60;99.90;;;;;;5076715;28;20073;-66
2021/11/19 00:51:38;;;;;;;168.85;65.13;;;9.60;99.90;;;;;;5076311;28;20351;-66
2021/11/19 00:54:05;;;;;;;162.27;67.28;;;9.60;99.90;;;;;;5076635;28;20017;-66
2021/11/19 00:56:34;;;;;;;175.20;68.00;;;9.60;99.90;;;;;;5074832;28;20025;-66
2021/11/19 00:59:00;;;;;;;173.68;68.55;;;9.60;99.90;;;;;;5076280;28;20024;-66
2021/11/19 01:01:30;;;;;;;162.57;65.80;;;9.60;99.90;;;;;;5076231;28;20040;-66
2021/11/19 01:03:57;;;;;;;161.50;65.70;;;9.60;99.90;;;;;;5074606;28;20397;-66
2021/11/19 01:06:22;;;;;;;159.95;66.88;;;9.60;99.90;;;;;;5076125;28;20103;-66
2021/11/19 01:08:49;;;;;;;175.75;66.95;;;9.60;99.90;;;;;;5074517;28;20123;-66
2021/11/19 01:11:18;;;;;;;165.50;66.38;;;9.60;99.90;;;;;;5076243;28;20016;-67
2021/11/19 01:13:47;;;;;;;169.85;70.03;;;9.60;99.90;;;;;;5076266;28;20071;-66
2021/11/19 01:16:23;;;;;;;171.55;68.18;;;9.60;99.90;;;;;;5075664;28;20017;-66
2021/11/19 01:18:52;;;;;;;170.43;69.40;;;9.60;99.90;;;;;;5075635;28;20064;-66
2021/11/19 01:21:24;;;;;;;173.25;71.05;;;9.60;99.90;;;;;;5074717;28;20024;-66
2021/11/19 01:23:50;;;;;;;184.55;71.65;;;9.60;99.90;;;;;;5075850;28;20488;-66
2021/11/19 01:26:20;;;;;;;165.52;67.30;;;9.60;99.90;;;;;;5075804;28;20107;-66
2021/11/19 01:28:49;;;;;;;178.07;70.93;;;9.60;99.90;;;;;;5075626;28;20025;-66
2021/11/19 01:31:19;;;;;;;180.95;70.82;;;9.60;99.90;;;;;;5075134;28;20074;-66
2021/11/19 01:33:45;;;;;;;184.10;71.60;;;9.60;99.90;;;;;;5074802;28;20024;-66
2021/11/19 01:36:12;;;;;;;186.68;71.85;;;9.60;99.90;;;;;;5075893;28;20056;-66
2021/11/19 01:38:40;;;;;;;190.05;75.38;;;9.60;99.90;;;;;;5074276;28;20020;-66
2021/11/19 01:41:15;;;;;;;189.82;74.25;;;9.60;99.90;;;;;;5074335;28;20025;-66
2021/11/19 01:43:41;;;;;;;190.88;75.78;;;9.60;99.90;;;;;;5057244;28;20119;-67
2021/11/19 01:46:13;;;;;;;194.65;76.07;;;9.60;99.90;;;;;;5074502;28;20021;-66
2021/11/19 01:48:43;;;;;;;188.30;76.05;;;9.60;99.90;;;;;;5057155;28;20024;-66
2021/11/19 01:51:48;;;;;;;179.15;74.40;;;9.70;99.90;;;;;;5075248;28;20060;-66
2021/11/19 01:54:20;;;;;;;198.50;75.10;;;9.60;99.90;;;;;;5075563;28;20025;-66
2021/11/19 01:56:53;;;;;;;189.80;72.93;;;9.70;99.90;;;;;;5075497;28;20017;-66
2021/11/19 01:59:44;;;;;;;197.63;75.30;;;9.70;99.90;;;;;;5056953;28;20078;-66
2021/11/19 02:02:14;;;;;;;196.75;73.90;;;9.70;99.90;;;;;;5074685;28;20074;-66
2021/11/19 02:04:48;;;;;;;186.77;73.78;;;9.70;99.90;;;;;;5075271;28;20036;-65
2021/11/19 02:07:20;;;;;;;177.93;70.90;;;9.70;99.90;;;;;;5073821;28;20078;-66
2021/11/19 02:10:19;;;;;;;181.75;74.20;;;9.70;99.90;;;;;;5074049;28;20024;-66
2021/11/19 02:12:59;;;;;;;174.77;70.70;;;9.70;99.90;;;;;;5075054;28;20036;-65
2021/11/19 02:15:30;;;;;;;161.30;68.45;;;9.70;99.90;;;;;;5074539;28;20078;-66
2021/11/19 02:18:07;;;;;;;175.00;67.78;;;9.70;99.90;;;;;;5075000;28;20013;-66
2021/11/19 02:20:38;;;;;;;171.52;68.53;;;9.70;99.90;;;;;;5073621;28;20417;-66
2021/11/19 02:23:11;;;;;;;168.75;65.57;;;9.70;99.90;;;;;;5074625;28;20021;-66
2021/11/19 02:25:42;;;;;;;146.07;62.97;;;9.80;99.90;;;;;;5074598;28;20025;-65
2021/11/19 02:28:13;;;;;;;157.23;64.97;;;9.80;99.90;;;;;;5074795;28;20032;-65
2021/11/19 02:30:54;;;;;;;148.02;65.72;;;9.70;99.90;;;;;;5074476;28;20107;-66
2021/11/19 02:33:20;;;;;;;152.68;62.35;;;9.70;99.90;;;;;;5074726;28;20020;-66
2021/11/19 02:36:07;;;;;;;156.63;64.07;;;9.70;99.90;;;;;;5074687;28;20104;-66
2021/11/19 02:38:38;;;;;;;160.45;63.78;;;9.70;99.90;;;;;;5073496;28;20024;-66
2021/11/19 02:41:05;;;;;;;154.85;64.15;;;9.70;99.90;;;;;;5056201;28;20067;-66
2021/11/19 02:43:39;;;;;;;156.30;64.38;;;9.70;99.90;;;;;;5074541;28;20024;-66
2021/11/19 02:46:05;;;;;;;157.52;63.95;;;9.80;99.90;;;;;;5072672;28;20478;-66
2021/11/19 02:48:34;;;;;;;150.00;61.88;;;9.70;99.90;;;;;;5073314;28;20028;-66
2021/11/19 02:51:03;;;;;;;152.00;61.53;;;9.80;99.90;;;;;;5072655;28;20040;-67
2021/11/19 02:53:29;;;;;;;147.82;62.15;;;9.70;99.90;;;;;;5074698;28;20408;-66
2021/11/19 02:55:57;;;;;;;152.68;64.20;;;9.80;99.90;;;;;;5074350;28;20025;-65
2021/11/19 02:58:29;;;;;;;158.57;64.65;;;9.80;99.90;;;;;;5073789;28;20099;-66
2021/11/19 03:01:05;;;;;;;147.20;59.27;;;9.80;99.90;;;;;;5072865;28;20074;-66
2021/11/19 03:03:31;;;;;;;142.80;59.95;;;9.80;99.90;;;;;;5074241;28;20100;-66
2021/11/19 03:05:57;;;;;;;145.50;60.15;;;9.80;99.90;;;;;;5072966;28;20111;-66
2021/11/19 03:08:22;;;;;;;153.82;61.22;;;9.80;99.90;;;;;;5074186;28;20029;-66
2021/11/19 03:10:54;;;;;;;138.38;60.05;;;9.70;99.90;;;;;;5074103;28;20031;-64
2021/11/19 03:13:22;;;;;;;147.10;59.47;;;9.80;99.90;;;;;;5072409;28;20021;-64
2021/11/19 03:15:49;;;;;;;147.35;58.13;;;9.70;99.90;;;;;;5074138;28;20023;-66
2021/11/19 03:18:17;;;;;;;133.05;56.85;;;9.70;99.90;;;;;;5072949;28;20442;-66
2021/11/19 03:20:45;;;;;;;135.75;58.42;;;9.70;99.90;;;;;;5072647;28;20108;-66
2021/11/19 03:23:12;;;;;;;143.45;55.67;;;9.70;99.90;;;;;;5072247;28;20021;-67
2021/11/19 03:25:39;;;;;;;130.85;57.95;;;9.70;99.90;;;;;;5072598;28;20032;-64
2021/11/19 03:28:08;;;;;;;131.38;56.42;;;9.70;99.90;;;;;;5074004;28;20104;-64
2021/11/19 03:30:35;;;;;;;133.05;56.10;;;9.70;99.90;;;;;;5072527;28;20027;-66
2021/11/19 03:33:01;;;;;;;136.80;58.25;;;9.70;99.90;;;;;;5072069;28;20550;-64
2021/11/19 03:35:28;;;;;;;136.88;56.95;;;9.70;99.90;;;;;;5072766;28;20108;-65
2021/11/19 03:37:55;;;;;;;133.75;55.05;;;9.70;99.90;;;;;;5073614;28;20016;-64
2021/11/19 03:40:28;;;;;;;145.48;57.33;;;9.70;99.90;;;;;;5073595;28;20032;-67
2021/11/19 03:42:54;;;;;;;137.93;55.25;;;9.70;99.90;;;;;;5073815;28;20442;-66
2021/11/19 03:45:24;;;;;;;135.18;56.22;;;9.70;99.90;;;;;;5072031;28;20032;-67
2021/11/19 03:47:53;;;;;;;137.18;56.90;;;9.70;99.90;;;;;;5073548;28;20111;-64
2021/11/19 03:50:25;;;;;;;136.63;57.58;;;9.70;99.90;;;;;;5072054;28;20036;-65
2021/11/19 03:52:50;;;;;;;137.60;56.47;;;9.70;99.90;;;;;;5073572;28;20032;-65
2021/11/19 03:55:20;;;;;;;148.18;57.97;;;9.70;99.90;;;;;;5076588;28;20104;-64
2021/11/19 03:57:48;;;;;;;136.95;58.53;;;9.70;99.90;;;;;;5077716;28;20039;-64
2021/11/19 04:00:23;;;;;;;138.10;56.80;;;9.70;99.90;;;;;;5077382;28;20028;-66
2021/11/19 04:02:50;;;;;;;145.88;60.17;;;9.70;99.90;;;;;;5077627;28;20442;-66
2021/11/19 04:05:16;;;;;;;146.90;59.92;;;9.70;99.90;;;;;;5077036;28;20394;-66
2021/11/19 04:07:42;;;;;;;142.05;57.70;;;9.70;99.90;;;;;;5077525;28;20028;-66
2021/11/19 04:10:09;;;;;;;152.77;58.70;;;9.70;99.90;;;;;;5075662;28;20497;-65
2021/11/19 04:12:34;;;;;;;142.30;56.78;;;9.70;99.90;;;;;;5077060;28;20043;-66
2021/11/19 04:15:01;;;;;;;143.75;57.13;;;9.70;99.90;;;;;;5075576;28;20111;-66
2021/11/19 04:17:27;;;;;;;149.05;57.78;;;9.80;99.90;;;;;;5077338;28;20481;-67
2021/11/19 04:19:53;;;;;;;146.85;59.03;;;9.70;99.90;;;;;;5075561;28;20028;-66
2021/11/19 04:22:19;;;;;;;145.80;59.40;;;9.70;99.90;;;;;;5077228;28;20028;-66
2021/11/19 04:24:59;;;;;;;143.00;56.25;;;9.70;99.90;;;;;;5076024;28;20107;-65
2021/11/19 04:27:27;;;;;;;141.38;56.60;;;9.70;99.90;;;;;;5075327;28;20493;-67
2021/11/19 04:29:53;;;;;;;135.38;55.00;;;9.70;99.90;;;;;;5077075;28;20031;-66
2021/11/19 04:32:22;;;;;;;138.68;55.03;;;9.80;99.90;;;;;;5076396;28;20398;-67
2021/11/19 04:34:49;;;;;;;133.10;54.85;;;9.80;99.90;;;;;;5076446;28;20021;-65
2021/11/19 04:37:14;;;;;;;126.60;54.28;;;9.80;99.90;;;;;;5076686;28;20104;-65
2021/11/19 04:39:40;;;;;;;132.05;55.20;;;9.80;99.90;;;;;;5076677;28;20116;-66
2021/11/19 04:42:06;;;;;;;134.65;54.40;;;9.80;99.90;;;;;;5076593;28;20028;-66
2021/11/19 04:44:33;;;;;;;125.15;49.95;;;9.80;99.90;;;;;;5075022;28;20074;-66
2021/11/19 04:46:59;;;;;;;123.30;53.38;;;9.80;99.90;;;;;;5076808;28;20032;-66
2021/11/19 04:49:25;;;;;;;114.55;51.30;;;9.80;99.90;;;;;;5077049;28;20438;-66
2021/11/19 04:51:51;;;;;;;130.45;51.25;;;9.80;99.90;;;;;;5059044;28;20032;-66
2021/11/19 04:54:18;;;;;;;123.18;51.05;;;9.80;99.90;;;;;;5076682;28;20143;-64
2021/11/19 04:56:45;;;;;;;129.10;51.40;;;9.80;99.90;;;;;;5075460;28;20023;-66
2021/11/19 04:59:12;;;;;;;117.75;52.10;;;9.80;99.90;;;;;;5076610;28;20024;-66
2021/11/19 05:01:42;;;;;;;116.25;48.88;;;9.90;99.90;;;;;;5076566;28;20037;-64
2021/11/19 05:04:07;;;;;;;117.80;48.95;;;9.90;99.90;;;;;;5076015;28;20355;-66
2021/11/19 05:06:33;;;;;;;126.70;52.45;;;9.90;99.90;;;;;;5076186;28;20024;-64
2021/11/19 05:08:59;;;;;;;123.93;52.72;;;9.80;99.90;;;;;;5075011;28;20025;-64
2021/11/19 05:11:30;;;;;;;114.10;49.65;;;9.80;99.90;;;;;;5076304;28;20024;-64
2021/11/19 05:13:58;;;;;;;115.47;48.70;;;9.90;99.90;;;;;;5076318;28;20059;-66
2021/11/19 05:16:24;;;;;;;112.78;48.83;;;9.80;99.90;;;;;;5075737;28;20024;-66
2021/11/19 05:18:49;;;;;;;127.47;51.45;;;9.90;99.90;;;;;;5075014;28;20025;-66
2021/11/19 05:21:18;;;;;;;118.50;49.15;;;9.90;99.90;;;;;;5076177;28;20028;-66
2021/11/19 05:23:44;;;;;;;110.82;48.05;;;9.90;99.90;;;;;;5076119;28;20028;-66
2021/11/19 05:26:10;;;;;;;112.22;48.40;;;9.90;99.90;;;;;;5076060;28;20028;-66
2021/11/19 05:28:36;;;;;;;116.20;48.05;;;9.90;99.90;;;;;;5075875;28;20025;-66
2021/11/19 05:31:04;;;;;;;109.75;47.55;;;9.90;99.90;;;;;;5074429;28;20348;-66
2021/11/19 05:33:32;;;;;;;112.03;47.70;;;9.90;99.90;;;;;;5074466;28;20039;-66
2021/11/19 05:35:57;;;;;;;118.75;49.85;;;9.90;99.90;;;;;;5074118;28;20021;-66
2021/11/19 05:38:24;;;;;;;110.57;48.33;;;9.90;99.90;;;;;;5058221;28;20029;-66
2021/11/19 05:40:51;;;;;;;116.68;48.95;;;9.90;99.90;;;;;;5075485;28;20449;-64
2021/11/19 05:43:17;;;;;;;110.35;47.00;;;9.90;99.90;;;;;;5057251;28;20470;-66
2021/11/19 05:45:43;;;;;;;113.60;47.33;;;9.90;99.90;;;;;;5075147;28;20041;-66
2021/11/19 05:48:09;;;;;;;105.45;46.30;;;9.90;99.90;;;;;;5074489;28;20025;-66
2021/11/19 05:50:39;;;;;;;111.10;48.97;;;9.90;99.90;;;;;;5074412;28;20409;-66
2021/11/19 05:53:07;;;;;;;109.45;47.67;;;9.90;99.90;;;;;;5075462;28;20020;-65
2021/11/19 05:55:39;;;;;;;104.53;45.78;;;10.00;99.90;;;;;;5074261;28;20466;-65
2021/11/19 05:58:04;;;;;;;110.88;48.53;;;9.90;99.90;;;;;;5075420;28;20024;-66
2021/11/19 06:00:39;;;;;;;104.68;45.53;;;9.90;99.90;;;;;;5073684;28;20024;-66
2021/11/19 06:03:04;;;;;;;108.80;46.72;;;10.00;99.90;;;;;;5075336;28;20032;-66
2021/11/19 06:05:31;;;;;;;109.25;47.85;;;9.90;99.90;;;;;;5075293;28;20021;-65
2021/11/19 06:07:57;;;;;;;111.55;48.75;;;10.00;99.90;;;;;;5074730;28;20447;-65
2021/11/19 06:10:28;;;;;;;111.47;48.60;;;10.00;99.90;;;;;;5075217;28;20110;-66
2021/11/19 06:12:59;;;;;;;116.85;49.20;;;10.00;99.90;;;;;;5075038;28;20028;-66
2021/11/19 06:15:30;;;;;;;114.95;49.17;;;10.00;99.90;;;;;;5074245;28;20025;-66
2021/11/19 06:18:00;;;;;;;117.53;49.28;;;10.00;99.90;;;;;;5074650;28;20111;-66
2021/11/19 06:20:33;;;;;;;114.32;47.92;;;10.00;99.90;;;;;;5074688;28;20044;-64
2021/11/19 06:23:04;;;;;;;112.32;46.78;;;10.00;99.90;;;;;;5074977;28;20031;-65
2021/11/19 06:25:32;;;;;;;107.57;45.45;;;10.00;99.90;;;;;;5074919;28;20032;-66
2021/11/19 06:28:00;;;;;;;111.82;46.97;;;10.00;99.90;;;;;;5073028;28;20466;-65
2021/11/19 06:30:27;;;;;;;111.93;46.13;;;10.00;99.90;;;;;;5074645;28;20095;-66
2021/11/19 06:32:53;;;;;;;101.65;46.65;;;10.00;99.90;;;;;;5074007;28;20425;-67
2021/11/19 06:35:20;;;;;;;113.55;47.85;;;10.00;99.90;;;;;;5074710;28;20362;-66
2021/11/19 06:37:46;;;;;;;108.10;47.60;;;10.00;99.90;;;;;;5074615;28;20480;-66
2021/11/19 06:40:17;;;;;;;104.22;47.88;;;10.00;99.90;;;;;;5074631;28;20041;-66
2021/11/19 06:42:45;;;;;;;109.53;48.10;;;10.00;99.90;;;;;;5074549;28;20382;-66
2021/11/19 06:45:14;;;;;;;105.50;47.88;;;10.00;99.90;;;;;;5073113;28;20417;-65
2021/11/19 06:47:41;;;;;;;108.20;46.47;;;10.00;99.90;;;;;;5074480;28;20028;-66
2021/11/19 06:50:07;;;;;;;110.80;47.95;;;10.00;99.90;;;;;;5073301;28;20029;-66
2021/11/19 06:52:32;;;;;;;100.93;46.78;;;10.00;99.90;;;;;;5073126;28;20031;-66
2021/11/19 06:54:58;;;;;;;103.78;46.10;;;10.00;99.90;;;;;;5073832;28;20474;-66
2021/11/19 06:57:24;;;;;;;109.68;47.95;;;10.10;99.90;;;;;;5074301;28;20032;-66
2021/11/19 06:59:49;;;;;;;109.45;47.72;;;10.00;99.90;;;;;;5072600;28;20048;-65
2021/11/19 07:02:15;;;;;;;111.00;47.50;;;10.10;99.90;;;;;;5074265;28;20028;-65
2021/11/19 07:04:41;;;;;;;108.25;46.75;;;10.10;99.90;;;;;;5073943;28;20115;-64
2021/11/19 07:07:08;;;;;;;101.75;45.85;;;10.10;99.90;;;;;;5073087;28;20032;-64
2021/11/19 07:09:37;;;;;;;106.45;45.83;;;10.10;99.90;;;;;;5072401;28;20024;-64
2021/11/19 07:12:05;;;;;;;103.15;44.20;;;10.10;99.90;;;;;;5074049;28;20032;-65
2021/11/19 07:14:30;;;;;;;99.60;45.25;;;10.10;99.90;;;;;;5073865;28;20370;-64
2021/11/19 07:16:56;;;;;;;103.97;45.80;;;10.10;99.90;;;;;;5074017;28;20017;-67
2021/11/19 07:19:23;;;;;;;102.78;45.55;;;10.10;99.90;;;;;;5072281;28;20024;-66
2021/11/19 07:21:53;;;;;;;106.13;45.47;;;10.10;99.90;;;;;;5072232;28;20021;-64
2021/11/19 07:24:19;;;;;;;107.53;45.38;;;10.10;99.90;;;;;;5072336;28;20393;-64
2021/11/19 07:26:45;;;;;;;105.78;46.70;;;10.10;99.90;;;;;;5073771;28;20024;-66
2021/11/19 07:29:11;;;;;;;98.75;45.97;;;10.10;99.90;;;;;;5072511;28;20028;-67
2021/11/19 07:31:37;;;;;;;106.88;45.42;;;10.20;99.90;;;;;;5073276;28;20048;-64
2021/11/19 07:34:03;;;;;;;109.53;46.15;;;10.10;99.90;;;;;;5072672;28;20474;-70
2021/11/19 07:36:29;;;;;;;109.13;45.88;;;10.10;99.90;;;;;;5073405;28;20036;-71
2021/11/19 07:38:56;;;;;;;105.65;45.20;;;10.10;99.90;;;;;;5073396;28;20024;-71
2021/11/19 07:41:23;;;;;;;112.10;45.58;;;10.10;99.90;;;;;;5071854;28;20024;-70
2021/11/19 07:43:49;;;;;;;105.93;44.92;;;10.10;99.90;;;;;;5072648;28;20032;-70
2021/11/19 07:46:18;;;;;;;102.03;45.50;;;10.20;99.90;;;;;;5073276;28;20358;-70
2021/11/19 07:48:44;;;;;;;111.78;46.50;;;10.20;99.90;;;;;;5072841;28;20060;-69
2021/11/19 07:51:15;;;;;;;112.30;47.50;;;10.10;99.90;;;;;;5071213;28;20075;-70
2021/11/19 07:53:41;;;;;;;104.28;47.78;;;10.10;99.90;;;;;;5067858;28;20016;-71
2021/11/19 07:56:09;;;;;;;109.45;47.92;;;10.10;99.90;;;;;;5073618;28;20097;-70
2021/11/19 07:58:35;;;;;;;103.68;45.60;;;10.10;99.90;;;;;;5071559;28;20048;-71
2021/11/19 08:01:02;;;;;;;107.60;45.28;;;10.20;99.90;;;;;;5072650;28;20028;-71
2021/11/19 08:03:28;;;;;;;104.38;46.80;;;10.20;99.90;;;;;;5072953;28;20017;-71
2021/11/19 08:05:57;;;;;;;111.22;48.38;;;10.20;99.90;;;;;;5073307;28;20035;-71
2021/11/19 08:08:23;;;;;;;109.85;46.08;;;10.20;99.90;;;;;;5071836;28;20032;-71
2021/11/19 08:10:50;;;;;;;110.40;46.58;;;10.20;99.90;;;;;;5072035;28;20032;-71
2021/11/19 08:13:17;;;;;;;111.93;45.42;;;10.20;99.90;;;;;;5071034;28;20098;-71
2021/11/19 08:15:43;;;;;;;104.22;46.88;;;10.20;99.90;;;;;;5066173;28;20043;-71
2021/11/19 08:18:17;;;;;;;112.22;47.83;;;10.20;99.90;;;;;;5072139;28;20021;-71
2021/11/19 08:20:43;;;;;;;;;;;10.20;99.90;;;;;;5071736;28;20024;-70
2021/11/19 08:23:12;;;;;;;107.03;47.45;;;10.20;99.90;;;;;;5071825;28;19928;-71
2021/11/19 08:25:39;;;;;;;109.32;47.92;;;10.20;99.90;;;;;;5072136;28;20398;-71
2021/11/19 08:28:06;;;;;;;116.22;49.05;;;10.20;99.90;;;;;;5072018;28;20078;-71
2021/11/19 08:30:39;;;;;;;108.90;46.85;;;10.30;99.90;;;;;;5071307;28;20017;-71
2021/11/19 08:33:06;;;;;;;113.70;48.97;;;10.20;99.90;;;;;;5069028;28;20037;-72
2021/11/19 08:35:34;;;;;;;109.72;48.30;;;10.30;99.90;;;;;;5053616;28;20028;-71
2021/11/19 08:38:01;;;;;;;110.93;48.17;;;10.30;99.90;;;;;;5072103;28;20028;-71
2021/11/19 08:40:28;;;;;;;110.88;47.83;;;10.30;99.90;;;;;;5074075;28;20035;-70
2021/11/19 08:42:54;;;;;;;113.75;49.15;;;10.30;99.90;;;;;;5076552;28;20073;-70
2021/11/19 08:45:23;;;;;;;122.32;48.38;;;10.30;99.90;;;;;;5075025;28;20514;-71
2021/11/19 08:47:51;;;;;;;119.32;50.15;;;10.30;99.90;;;;;;5076099;28;20029;-71
2021/11/19 08:50:21;;;;;;;110.68;49.38;;;10.40;99.90;;;;;;5074714;28;20032;-71
2021/11/19 08:52:46;;;;;;;110.38;50.15;;;10.40;99.90;;;;;;5076080;28;20354;-71
2021/11/19 08:55:13;;;;;;;110.10;47.22;;;10.40;99.90;;;;;;5076499;28;20108;-71
2021/11/19 08:57:39;;;;;;;113.15;48.55;;;10.40;99.90;;;;;;5074925;28;20108;-70
2021/11/19 09:00:10;;;;;;;111.45;47.83;;;10.40;99.90;;;;;;5074435;28;20103;-70
2021/11/19 09:02:37;;;;;;;107.25;47.90;;;10.40;99.90;;;;;;5075289;28;20025;-71
2021/11/19 09:05:05;;;;;;;101.10;46.22;;;10.50;99.90;;;;;;5075600;28;20040;-70
2021/11/19 09:07:32;;;;;;;104.20;47.08;;;10.50;99.90;;;;;;5075544;28;20016;-71
2021/11/19 09:09:59;;;;;;;104.75;46.15;;;10.50;99.90;;;;;;5072372;28;20037;-71
2021/11/19 09:12:25;;;;;;;100.72;45.55;;;10.50;99.90;;;;;;5075217;28;20025;-71
2021/11/19 09:14:50;;;;;;;108.32;48.40;;;10.50;99.90;;;;;;5075740;28;20146;-71
2021/11/19 09:17:43;;;;;;;102.93;46.35;;;10.50;99.90;;;;;;5075157;28;20021;-71
2021/11/19 09:20:18;;;;;;;102.70;44.22;;;10.50;99.90;;;;;;5075567;28;20470;-71
2021/11/19 09:23:07;;;;;;;99.05;44.50;;;10.50;99.90;;;;;;5075099;28;20029;-71
2021/11/19 09:25:34;;;;;;;92.28;41.90;;;10.60;99.90;;;;;;5085540;28;20027;-70
2021/11/19 09:28:01;;;;;;;91.05;42.42;;;10.60;99.90;;;;;;5091665;28;20028;-70
2021/11/19 09:30:31;;;;;;;92.40;41.78;;;10.60;99.90;;;;;;5075241;28;20024;-71
2021/11/19 09:32:58;;;;;;;82.80;40.63;;;10.60;99.90;;;;;;5075111;28;20115;-71
2021/11/19 09:35:28;;;;;;;93.45;41.13;;;10.60;99.90;;;;;;5074345;28;20112;-70
2021/11/19 09:37:54;;;;;;;88.80;42.28;;;10.60;99.90;;;;;;5075772;28;20025;-70
2021/11/19 09:40:27;;;;;;;77.45;39.33;;;10.70;99.90;;;;;;5075598;28;20052;-70
2021/11/19 09:43:05;;;;;;;90.13;45.73;;;10.70;99.90;;;;;;5057668;28;20047;-70
2021/11/19 09:45:56;;;;;;;86.40;42.40;;;10.70;99.90;;;;;;5075052;28;20271;-70
2021/11/19 09:48:47;;;;;;;80.95;41.08;;;10.70;99.90;;;;;;5075532;28;20091;-70
2021/11/19 09:51:53;;;;;;;75.65;38.67;;;10.70;99.90;;;;;;5074867;28;20127;-70
2021/11/19 09:54:42;;;;;;;80.03;40.17;;;10.70;99.90;;;;;;5075428;28;20443;-70
2021/11/19 09:57:38;;;;;;;76.40;38.33;;;10.70;99.90;;;;;;5074922;28;20028;-70
2021/11/19 10:00:17;;;;;;;76.47;39.90;;;10.70;99.90;;;;;;5074762;28;20056;-70
2021/11/19 10:03:09;;;;;;;81.03;39.80;;;10.70;99.90;;;;;;5074211;28;20036;-70
2021/11/19 10:06:06;;;;;;;79.40;40.00;;;10.70;99.90;;;;;;5075229;28;20529;-70
2021/11/19 10:08:50;;;;;;;91.93;44.08;;;10.80;99.90;;;;;;5073342;28;20029;-70
2021/11/19 10:11:39;;;;;;;88.88;42.83;;;10.80;99.90;;;;;;5073267;28;20040;-70
2021/11/19 10:18:00;;;;;;;93.15;46.03;;;10.80;99.90;;;;;;5070684;28;20432;-70
2021/11/19 10:20:33;;;;;;;102.68;46.95;;;10.80;99.90;;;;;;5070563;28;20036;-71
2021/11/19 10:23:07;;;;;;;109.80;47.97;;;10.80;99.90;;;;;;5069670;28;20545;-71
2021/11/19 10:25:46;;;;;;;105.40;48.45;;;10.80;99.90;;;;;;5071152;28;20040;-71
2021/11/19 10:28:19;;;;;;;99.60;47.40;;;10.80;99.90;;;;;;5069262;28;20052;-71
2021/11/19 10:30:48;;;;;;;;;;;10.90;99.90;;;;;;5071043;28;20025;-71
2021/11/19 10:33:25;;;;;;;108.38;48.72;;;10.90;99.90;;;;;;5070746;28;19987;-71
2021/11/19 10:36:00;;;;;;;116.30;51.55;;;10.90;99.90;;;;;;5069721;28;20143;-71
2021/11/19 10:38:56;;;;;;;117.10;52.22;;;10.90;99.90;;;;;;5070912;28;20104;-71
2021/11/19 10:41:48;;;;;;;117.78;52.40;;;10.90;99.90;;;;;;5070126;28;20024;-71
2021/11/19 10:44:54;;;;;;;114.85;51.47;;;10.90;99.90;;;;;;5071214;28;20447;-71
2021/11/19 10:47:59;;;;;;;118.97;53.08;;;10.90;99.90;;;;;;5076205;28;20021;-71
2021/11/19 10:51:05;;;;;;;117.15;52.85;;;10.90;99.90;;;;;;5085327;28;20020;-70
2021/11/19 10:54:03;;;;;;;117.10;53.15;;;10.80;99.90;;;;;;5081518;28;20370;-71
2021/11/19 10:56:51;;;;;;;114.30;53.17;;;10.80;99.90;;;;;;5083213;28;20515;-71
2021/11/19 10:59:26;;;;;;;125.85;54.15;;;10.80;99.90;;;;;;5073610;28;20025;-71
2021/11/19 11:01:59;;;;;;;124.25;56.65;;;10.80;99.90;;;;;;5078885;28;20044;-70
2021/11/19 11:04:49;;;;;;;126.65;55.95;;;10.90;99.90;;;;;;5083552;28;20047;-70
2021/11/19 11:07:28;;;;;;;138.57;59.58;;;10.90;99.90;;;;;;5080522;28;20086;-71
2021/11/19 11:10:00;;;;;;;141.50;62.25;;;10.90;99.90;;;;;;5048445;28;20025;-71
2021/11/19 11:12:48;;;;;;;144.45;62.45;;;10.90;99.90;;;;;;5073480;28;20028;-71
2021/11/19 11:20:44;;;;;;;151.05;66.32;;;10.90;99.90;;;;;;5091964;28;20413;-70
2021/11/19 11:23:47;;;;;;;156.03;68.17;;;10.90;99.90;;;;;;5071255;28;20028;-70
2021/11/19 11:26:38;;;;;;;152.85;68.68;;;11.00;99.90;;;;;;5080772;28;20020;-70
2021/11/19 11:29:28;;;;;;;154.77;67.30;;;11.00;99.90;;;;;;5110184;28;20071;-70
2021/11/19 11:32:33;;;;;;;168.77;71.72;;;11.00;99.90;;;;;;5106624;28;20031;-70
2021/11/19 11:35:10;;;;;;;167.38;69.80;;;11.00;99.90;;;;;;5110712;28;20469;-70
2021/11/19 11:38:06;;;;;;;166.95;69.40;;;11.10;99.90;;;;;;5109315;28;20059;-70
2021/11/19 11:43:30;;;;;;;152.10;67.30;;;11.10;99.90;;;;;;5122294;27;20128;-71
2021/11/19 11:46:18;;;;;;;149.25;66.00;;;11.20;99.90;;;;;;5114793;28;20020;-71
2021/11/19 11:55:15;;;;;;;136.55;66.05;;;11.20;99.90;;;;;;5069031;28;20847;-71
2021/11/19 12:00:37;;;;;;;149.43;66.32;;;11.30;99.90;;;;;;5111630;27;20400;-71
2021/11/19 12:03:33;;;;;;;139.57;64.93;;;11.30;99.90;;;;;;5111484;28;20032;-71
2021/11/19 12:06:22;;;;;;;135.18;65.80;;;11.30;99.90;;;;;;5111270;28;20020;-71
2021/11/19 12:09:28;;;;;;;132.18;65.20;;;11.40;99.90;;;;;;5111203;28;20065;-71
2021/11/19 12:15:12;;;;;;;125.63;60.15;;;11.40;99.90;;;;;;5071505;28;20361;-70
2021/11/19 12:18:03;;;;;;;112.57;58.88;;;11.50;99.90;;;;;;5070653;28;20108;-71
2021/11/19 12:20:57;;;;;;;127.78;60.90;;;11.60;99.90;;;;;;5049669;28;20033;-69
2021/11/19 12:23:50;;;;;;;124.60;62.20;;;11.60;99.90;;;;;;5051103;28;20025;-69
2021/11/19 12:26:29;;;;;;;120.22;64.20;;;11.60;99.90;;;;;;5084052;28;20032;-69
2021/11/19 12:29:19;;;;;;;115.43;61.05;;;11.70;99.90;;;;;;5089666;28;20389;-68
2021/11/19 12:34:53;;;;;;;122.78;61.53;;;11.70;99.90;;;;;;5091736;28;20407;-71
2021/11/19 12:37:36;;;;;;;117.85;61.08;;;11.70;99.90;;;;;;5089704;28;20029;-71
2021/11/19 12:40:12;;;;;;;120.10;60.33;;;11.70;99.90;;;;;;5091649;28;20025;-70
2021/11/19 12:42:46;;;;;;;113.40;59.25;;;11.70;99.90;;;;;;5079760;28;20626;-71
2021/11/19 12:45:21;;;;;;;113.57;60.40;;;11.80;99.90;;;;;;5110553;28;20024;-71
2021/11/19 12:48:27;;;;;;;115.00;59.67;;;11.70;99.90;;;;;;5110238;28;20026;-71
2021/11/19 12:51:08;;;;;;;112.82;58.60;;;11.70;99.90;;;;;;5092227;28;20024;-71
2021/11/19 12:53:52;;;;;;;115.85;59.25;;;11.70;99.90;;;;;;5100855;28;20043;-71
2021/11/19 12:56:41;;;;;;;103.85;56.17;;;11.70;99.90;;;;;;5090819;28;20022;-71
2021/11/19 12:59:14;;;;;;;115.28;59.17;;;11.70;99.90;;;;;;5097978;28;20019;-71
2021/11/19 13:02:09;;;;;;;114.85;59.60;;;11.70;99.90;;;;;;5089334;28;20388;-71
2021/11/19 13:04:37;;;;;;;111.32;57.08;;;11.70;99.90;;;;;;5091689;28;20024;-70
2021/11/19 13:07:09;;;;;;;114.97;56.08;;;11.70;99.90;;;;;;5094281;28;20013;-71
2021/11/19 13:09:46;;;;;;;108.68;57.85;;;11.70;99.90;;;;;;5108318;28;20016;-71
2021/11/19 13:12:50;;;;;;;103.13;55.13;;;11.70;99.90;;;;;;5109789;28;20024;-71
2021/11/19 13:21:04;;;;;;;106.18;56.10;;;11.70;99.90;;;;;;5071499;28;20419;-71